Hortensia, Argentina
Current Conditions -  °F | °C
As of 11:00 AM on Thursday 23 Oct 2014 (Local Time) from SAEZ Reporting Station
Clear Clear  
Wind Chill: 82°   Ceiling: Unl
Heat Index: 85°   Visibility: 6mi
Dew Point: 66°   Wind: 2mph
Humidity: 58%   Direction: NA
Pressure: 30.03"   Gusts: NA
Location:  35.93°S, 61.28°W
Report Text: SAEZ 231400Z VRB02KT CAVOK 28/19 Q1017
Loading
Personal Weather Stations






























Interactive Weather Map New forecast layout! Learn more

10-Day Weather Forecast

Advertisements
Track Severe Weather on mobile